Time;durP1;ratioP1;P1;durP2;ratioP2;P2;SDS_P1;SDS_P2;PMS_P1;PMS_P2;Temp;Humidity;BMP_temperature;BMP_pressure;BME280_temperature;BME280_humidity;BME280_pressure;Samples;Min_cycle;Max_cycle;Signal;HPM_P1;HPM_P2
2024/04/23 00:01:05;;;;;;;;;;;;;;;7.96;nan;102232.38;5488237;26;19932;-91
2024/04/23 00:03:30;;;;;;;;;;;;;;;7.97;nan;102231.34;5476081;26;19956;-91
2024/04/23 00:05:56;;;;;;;;;;;;;;;7.97;nan;102230.53;5485523;26;20380;-91
2024/04/23 00:08:21;;;;;;;;;;;;;;;7.95;nan;102225.38;5488673;26;19931;-92
2024/04/23 00:10:46;;;;;;;;;;;;;;;7.92;nan;102223.09;5482578;26;19928;-91
2024/04/23 00:13:11;;;;;;;;;;;;;;;7.93;nan;102218.59;5487189;26;19943;-91
2024/04/23 00:15:36;;;;;;;;;;;;;;;7.94;nan;102217.56;5488464;26;20352;-90
2024/04/23 00:18:01;;;;;;;;;;;;;;;7.93;nan;102219.41;5488038;26;19945;-91
2024/04/23 00:20:28;;;;;;;;;;;;;;;7.96;nan;102216.34;5485250;26;19936;-91
2024/04/23 00:22:53;;;;;;;;;;;;;;;7.98;nan;102210.81;5475731;26;19928;-89
2024/04/23 00:25:18;;;;;;;;;;;;;;;8.01;nan;102207.75;5484385;26;19935;-91
2024/04/23 00:27:43;;;;;;;;;;;;;;;8.01;nan;102207.75;5482274;26;19928;-91
2024/04/23 00:30:09;;;;;;;;;;;;;;;7.98;nan;102208.16;5491583;26;19928;-91
2024/04/23 00:32:34;;;;;;;;;;;;;;;7.96;nan;102212.84;5489259;26;20637;-91
2024/04/23 00:34:59;;;;;;;;;;;;;;;7.95;nan;102213.88;5478854;26;20380;-91
2024/04/23 00:37:24;;;;;;;;;;;;;;;7.93;nan;102202.56;5484620;26;19928;-91
2024/04/23 00:39:50;;;;;;;;;;;;;;;7.92;nan;102200.94;5489374;26;19935;-91
2024/04/23 00:42:15;;;;;;;;;;;;;;;7.91;nan;102194.78;5475789;26;19936;-90
2024/04/23 00:44:40;;;;;;;;;;;;;;;7.90;nan;102198.47;5474158;26;19946;-91
2024/04/23 00:47:05;;;;;;;;;;;;;;;7.90;nan;102195.78;5487107;26;20621;-91
2024/04/23 00:49:31;;;;;;;;;;;;;;;7.89;nan;102196.78;5490088;26;20424;-91
2024/04/23 00:51:56;;;;;;;;;;;;;;;7.87;nan;102188.97;5493624;26;20607;-91
2024/04/23 00:54:25;;;;;;;;;;;;;;;7.84;nan;102194.69;5487245;26;19928;-91
2024/04/23 00:56:52;;;;;;;;;;;;;;;7.81;nan;102196.94;5482320;26;19927;-91
2024/04/23 00:59:18;;;;;;;;;;;;;;;7.76;nan;102186.84;5483032;26;20056;-92
2024/04/23 01:01:44;;;;;;;;;;;;;;;7.72;nan;102192.75;5486738;26;19948;-91
2024/04/23 01:04:09;;;;;;;;;;;;;;;7.66;nan;102186.34;5486814;26;19928;-91
2024/04/23 01:06:35;;;;;;;;;;;;;;;7.63;nan;102188.59;5487694;26;19932;-91
2024/04/23 01:09:00;;;;;;;;;;;;;;;7.55;nan;102185.06;5481921;26;19936;-91
2024/04/23 01:11:26;;;;;;;;;;;;;;;7.60;nan;102192.47;5492713;26;20424;-92
2024/04/23 01:13:51;;;;;;;;;;;;;;;7.58;nan;102183.84;5480910;26;19940;-91
2024/04/23 01:16:17;;;;;;;;;;;;;;;7.56;nan;102184.03;5487805;26;19939;-90
2024/04/23 01:18:44;;;;;;;;;;;;;;;7.55;nan;102178.91;5480864;26;20387;-91
2024/04/23 01:21:10;;;;;;;;;;;;;;;7.55;nan;102182.41;5489079;26;19935;-91
2024/04/23 01:23:41;;;;;;;;;;;;;;;7.54;nan;102180.75;5489853;26;19928;-91
2024/04/23 01:26:08;;;;;;;;;;;;;;;7.53;nan;102181.72;5475500;26;19935;-90
2024/04/23 01:28:34;;;;;;;;;;;;;;;7.54;nan;102179.88;5481926;26;19935;-91
2024/04/23 01:30:59;;;;;;;;;;;;;;;7.54;nan;102177.22;5481391;26;19934;-91
2024/04/23 01:33:26;;;;;;;;;;;;;;;7.53;nan;102172.91;5482631;26;20063;-90
2024/04/23 01:35:51;;;;;;;;;;;;;;;7.52;nan;102173.94;5486955;26;19928;-91
2024/04/23 01:38:17;;;;;;;;;;;;;;;7.50;nan;102168.78;5486698;26;19928;-91
2024/04/23 01:40:42;;;;;;;;;;;;;;;7.51;nan;102166.94;5485802;26;19977;-91
2024/04/23 01:43:08;;;;;;;;;;;;;;;7.52;nan;102171.25;5481790;26;19928;-90
2024/04/23 01:45:34;;;;;;;;;;;;;;;7.52;nan;102164.09;5486660;26;19939;-91
2024/04/23 01:47:59;;;;;;;;;;;;;;;7.57;nan;102168.88;5484222;26;19939;-91
2024/04/23 01:50:24;;;;;;;;;;;;;;;7.58;nan;102166.00;5477463;26;19959;-90
2024/04/23 01:52:49;;;;;;;;;;;;;;;7.57;nan;102161.69;5489850;26;19932;-91
2024/04/23 01:55:16;;;;;;;;;;;;;;;7.56;nan;102170.72;5493856;26;19928;-91
2024/04/23 01:57:41;;;;;;;;;;;;;;;7.55;nan;102168.22;5479996;26;19928;-91
2024/04/23 02:00:14;;;;;;;;;;;;;;;7.52;nan;102163.25;5481298;26;19978;-90
2024/04/23 02:02:41;;;;;;;;;;;;;;;7.48;nan;102162.81;5453941;26;19996;-90
2024/04/23 02:05:08;;;;;;;;;;;;;;;7.44;nan;102153.56;5480489;26;19928;-91
2024/04/23 02:07:33;;;;;;;;;;;;;;;7.40;nan;102154.16;5495522;25;19928;-91
2024/04/23 02:09:59;;;;;;;;;;;;;;;7.35;nan;102157.38;5493303;26;19938;-90
2024/04/23 02:12:24;;;;;;;;;;;;;;;7.31;nan;102145.44;5493208;26;19956;-91
2024/04/23 02:14:49;;;;;;;;;;;;;;;7.27;nan;102152.19;5488523;26;19928;-90
2024/04/23 02:17:16;;;;;;;;;;;;;;;7.23;nan;102145.59;5507792;26;19943;-91
2024/04/23 02:19:42;;;;;;;;;;;;;;;7.19;nan;102150.50;5452192;26;19932;-89
2024/04/23 02:22:07;;;;;;;;;;;;;;;7.17;nan;102143.69;5483618;26;19935;-91
2024/04/23 02:24:32;;;;;;;;;;;;;;;7.14;nan;102147.56;5481305;26;19976;-91
2024/04/23 02:26:58;;;;;;;;;;;;;;;7.11;nan;102153.28;5503843;25;20301;-91
2024/04/23 02:29:23;;;;;;;;;;;;;;;7.05;nan;102151.38;5492491;25;19936;-90
2024/04/23 02:31:49;;;;;;;;;;;;;;;7.01;nan;102144.78;5491856;26;19928;-90
2024/04/23 02:34:14;;;;;;;;;;;;;;;6.98;nan;102137.97;5473441;26;20381;-90
2024/04/23 02:36:39;;;;;;;;;;;;;;;6.96;nan;102147.19;5486580;26;19939;-91
2024/04/23 02:39:04;;;;;;;;;;;;;;;6.94;nan;102136.72;5465883;26;19967;-91
2024/04/23 02:41:30;;;;;;;;;;;;;;;6.94;nan;102141.22;5478805;26;19934;-91
2024/04/23 02:43:55;;;;;;;;;;;;;;;6.92;nan;102133.41;5492495;26;19928;-91
2024/04/23 02:46:20;;;;;;;;;;;;;;;6.92;nan;102132.59;5479007;26;20097;-91
2024/04/23 02:48:45;;;;;;;;;;;;;;;6.91;nan;102136.28;5491802;26;20665;-91
2024/04/23 02:51:10;;;;;;;;;;;;;;;6.93;nan;102128.91;5498664;26;19993;-91
2024/04/23 02:53:35;;;;;;;;;;;;;;;6.94;nan;102136.72;5489996;26;20288;-90
2024/04/23 02:56:01;;;;;;;;;;;;;;;6.93;nan;102137.72;5486596;26;19935;-91
2024/04/23 02:58:26;;;;;;;;;;;;;;;6.94;nan;102126.06;5491330;26;19957;-91
2024/04/23 03:00:51;;;;;;;;;;;;;;;6.95;nan;102127.69;5491791;26;20001;-91
2024/04/23 03:03:16;;;;;;;;;;;;;;;6.94;nan;102134.03;5485440;26;19928;-91
2024/04/23 03:05:41;;;;;;;;;;;;;;;6.94;nan;102122.56;5487677;26;19935;-91
2024/04/23 03:08:26;;;;;;;;;;;;;;;6.93;nan;102131.56;5476456;26;20071;-90
2024/04/23 03:10:51;;;;;;;;;;;;;;;6.96;nan;102116.03;5470365;26;19932;-91
2024/04/23 03:13:17;;;;;;;;;;;;;;;6.97;nan;102117.69;5491782;26;19928;-91
2024/04/23 03:15:42;;;;;;;;;;;;;;;7.00;nan;102112.97;5478821;26;19935;-91
2024/04/23 03:18:07;;;;;;;;;;;;;;;7.03;nan;102109.97;5459628;26;19934;-91
2024/04/23 03:20:32;;;;;;;;;;;;;;;7.06;nan;102112.22;5485505;26;19927;-91
2024/04/23 03:22:57;;;;;;;;;;;;;;;7.06;nan;102104.25;5492444;26;19942;-91
2024/04/23 03:25:23;;;;;;;;;;;;;;;7.04;nan;102107.09;5490353;26;20299;-91
2024/04/23 03:27:48;;;;;;;;;;;;;;;7.06;nan;102112.22;5486471;26;19977;-90
2024/04/23 03:30:13;;;;;;;;;;;;;;;7.06;nan;102104.25;5488921;26;19934;-90
2024/04/23 03:32:39;;;;;;;;;;;;;;;7.06;nan;102115.72;5489944;26;20389;-91
2024/04/23 03:35:04;;;;;;;;;;;;;;;7.06;nan;102114.91;5479277;26;19934;-91
2024/04/23 03:37:29;;;;;;;;;;;;;;;7.03;nan;102109.97;5485778;26;19944;-91
2024/04/23 03:39:55;;;;;;;;;;;;;;;7.01;nan;102101.34;5494948;26;20651;-91
2024/04/23 03:42:20;;;;;;;;;;;;;;;7.01;nan;102104.81;5490322;26;19944;-90
2024/04/23 03:44:45;;;;;;;;;;;;;;;6.99;nan;102101.50;5480140;26;19935;-89
2024/04/23 03:47:10;;;;;;;;;;;;;;;6.97;nan;102096.34;5488218;26;19928;-90
2024/04/23 03:49:35;;;;;;;;;;;;;;;6.95;nan;102101.06;5491625;26;20672;-91
2024/04/23 03:52:07;;;;;;;;;;;;;;;6.95;nan;102097.56;5494431;26;20418;-91
2024/04/23 03:54:32;;;;;;;;;;;;;;;6.92;nan;102098.78;5478771;26;19934;-90
2024/04/23 03:56:58;;;;;;;;;;;;;;;6.92;nan;102101.44;5481720;26;19928;-90
2024/04/23 03:59:23;;;;;;;;;;;;;;;6.93;nan;102097.75;5491921;26;20257;-91
2024/04/23 04:01:53;;;;;;;;;;;;;;;6.94;nan;102101.25;5488199;26;19940;-91
2024/04/23 04:07:02;;;;;;;;;;;;;;;6.95;nan;102094.91;5483078;26;19935;-91
2024/04/23 04:09:27;;;;;;;;;;;;;;;6.94;nan;102095.91;5492173;26;19932;-90
2024/04/23 04:11:55;;;;;;;;;;;;;;;6.93;nan;102092.44;5493885;26;19935;-90
2024/04/23 04:14:21;;;;;;;;;;;;;;;6.93;nan;102094.28;5488905;26;19928;-90
2024/04/23 04:16:46;;;;;;;;;;;;;;;6.91;nan;102094.47;5486830;26;20454;-91
2024/04/23 04:19:11;;;;;;;;;;;;;;;6.93;nan;102083.63;5479892;26;19932;-91
2024/04/23 04:21:36;;;;;;;;;;;;;;;6.92;nan;102082.78;5480631;26;19935;-90
2024/04/23 04:24:01;;;;;;;;;;;;;;;6.94;nan;102085.25;5480902;26;20649;-90
2024/04/23 04:26:27;;;;;;;;;;;;;;;6.94;nan;102085.25;5482260;26;19935;-90
2024/04/23 04:28:52;;;;;;;;;;;;;;;6.96;nan;102081.38;5477509;26;19934;-91
2024/04/23 04:31:18;;;;;;;;;;;;;;;7.00;nan;102089.81;5480699;26;20432;-91
2024/04/23 04:33:43;;;;;;;;;;;;;;;7.03;nan;102091.31;5483224;26;20185;-91
2024/04/23 04:36:08;;;;;;;;;;;;;;;7.06;nan;102088.25;5485188;26;19928;-91
2024/04/23 04:38:33;;;;;;;;;;;;;;;7.05;nan;102081.28;5482163;26;19928;-91
2024/04/23 04:40:58;;;;;;;;;;;;;;;7.01;nan;102086.16;5482481;26;20302;-90
2024/04/23 04:43:24;;;;;;;;;;;;;;;6.98;nan;102083.84;5482429;26;20441;-91
2024/04/23 04:45:49;;;;;;;;;;;;;;;6.95;nan;102078.91;5485571;26;19943;-90
2024/04/23 04:48:14;;;;;;;;;;;;;;;6.90;nan;102090.16;5490926;26;20375;-91
2024/04/23 04:50:40;;;;;;;;;;;;;;;6.88;nan;102084.19;5487521;26;19996;-91
2024/04/23 04:53:05;;;;;;;;;;;;;;;6.89;nan;102074.38;5485691;26;19940;-91
2024/04/23 04:55:31;;;;;;;;;;;;;;;6.91;nan;102075.00;5489453;26;19939;-91
2024/04/23 05:06:10;;;;;;;;;;;;;;;6.91;nan;102081.16;5405592;26;19933;-91
2024/04/23 05:08:35;;;;;;;;;;;;;;;6.94;nan;102070.09;5411181;26;19929;-91
2024/04/23 05:11:00;;;;;;;;;;;;;;;7.00;nan;102081.00;5408388;26;19936;-90
2024/04/23 05:13:25;;;;;;;;;;;;;;;7.02;nan;102077.16;5407368;26;19929;-91
2024/04/23 05:15:50;;;;;;;;;;;;;;;7.06;nan;102078.41;5413888;26;19937;-91
2024/04/23 05:18:16;;;;;;;;;;;;;;;7.11;nan;102080.50;5417788;26;19929;-91
2024/04/23 05:20:41;;;;;;;;;;;;;;;7.16;nan;102080.72;5418952;26;19929;-90
2024/04/23 05:23:06;;;;;;;;;;;;;;;7.23;nan;102073.63;5422241;26;20372;-91
2024/04/23 05:25:31;;;;;;;;;;;;;;;7.24;nan;102075.28;5411525;26;19962;-91
2024/04/23 05:27:57;;;;;;;;;;;;;;;7.29;nan;102075.50;5407129;26;19933;-91
2024/04/23 05:33:06;;;;;;;;;;;;;;;7.37;nan;102083.38;5412579;26;19937;-91
2024/04/23 05:35:31;;;;;;;;;;;;;;;7.38;nan;102082.34;5417730;26;19929;-91
2024/04/23 05:37:56;;;;;;;;;;;;;;;7.41;nan;102081.97;5417260;26;20275;-91
2024/04/23 05:40:21;;;;;;;;;;;;;;;7.46;nan;102082.19;5400114;26;19933;-91
2024/04/23 05:42:46;;;;;;;;;;;;;;;7.49;nan;102083.66;5401715;26;19930;-91
2024/04/23 05:45:12;;;;;;;;;;;;;;;7.56;nan;102081.88;5395063;26;20429;-91
2024/04/23 05:47:57;;;;;;;;;;;;;;;7.65;nan;102077.19;5398762;26;19933;-91
2024/04/23 05:50:40;;;;;;;;;;;;;;;7.73;nan;102079.72;5404220;26;19935;-91
2024/04/23 05:53:24;;;;;;;;;;;;;;;7.78;nan;102094.09;5422584;26;19940;-91
2024/04/23 05:55:50;;;;;;;;;;;;;;;7.82;nan;102094.53;5408685;26;19996;-91
2024/04/23 05:58:15;;;;;;;;;;;;;;;7.86;nan;102096.59;5416986;26;19933;-91
2024/04/23 06:00:40;;;;;;;;;;;;;;;7.86;nan;102107.28;5414347;26;20263;-91
2024/04/23 06:03:05;;;;;;;;;;;;;;;7.80;nan;102096.56;5416467;26;19936;-91
2024/04/23 06:05:30;;;;;;;;;;;;;;;7.79;nan;102094.94;5423260;26;19929;-91
2024/04/23 06:07:57;;;;;;;;;;;;;;;7.83;nan;102099.66;5409790;26;19945;-91
2024/04/23 06:10:23;;;;;;;;;;;;;;;7.91;nan;102098.69;5404768;26;19935;-91
2024/04/23 06:12:49;;;;;;;;;;;;;;;8.04;nan;102095.25;5392590;26;19929;-92
2024/04/23 06:15:14;;;;;;;;;;;;;;;8.12;nan;102100.44;5409282;26;19945;-91
2024/04/23 06:17:40;;;;;;;;;;;;;;;8.17;nan;102103.31;5403928;26;19994;-91
2024/04/23 06:20:06;;;;;;;;;;;;;;;8.10;nan;102095.28;5420244;26;19929;-91
2024/04/23 06:22:35;;;;;;;;;;;;;;;8.03;nan;102101.59;5416675;26;19937;-91
2024/04/23 06:25:01;;;;;;;;;;;;;;;7.96;nan;102106.09;5406191;26;20006;-91
2024/04/23 06:27:27;;;;;;;;;;;;;;;7.91;nan;102104.03;5404868;26;20574;-92
2024/04/23 06:29:53;;;;;;;;;;;;;;;7.93;nan;102107.31;5413762;26;19929;-91
2024/04/23 06:32:18;;;;;;;;;;;;;;;8.01;nan;102109.81;5415005;26;19969;-91
2024/04/23 06:34:44;;;;;;;;;;;;;;;8.10;nan;102100.63;5409225;26;20372;-91
2024/04/23 06:37:10;;;;;;;;;;;;;;;8.14;nan;102112.56;5396271;26;19945;-91
2024/04/23 06:39:35;;;;;;;;;;;;;;;8.18;nan;102116.47;5405555;26;19992;-91
2024/04/23 06:42:00;;;;;;;;;;;;;;;8.28;nan;102113.44;5405362;26;20426;-91
2024/04/23 06:44:25;;;;;;;;;;;;;;;8.33;nan;102110.16;5404796;26;19928;-91
2024/04/23 06:46:51;;;;;;;;;;;;;;;8.46;nan;102108.41;5410912;26;19974;-92
2024/04/23 06:49:16;;;;;;;;;;;;;;;8.62;nan;102103.72;5389295;26;19933;-91
2024/04/23 06:51:41;;;;;;;;;;;;;;;8.79;nan;102108.47;5404911;26;19936;-91
2024/04/23 06:54:06;;;;;;;;;;;;;;;8.89;nan;102113.44;5400208;26;19929;-91
2024/04/23 06:56:32;;;;;;;;;;;;;;;8.98;nan;102103.38;5398202;26;19929;-92
2024/04/23 06:58:57;;;;;;;;;;;;;;;9.05;nan;102106.88;5415895;26;20382;-93
2024/04/23 07:01:22;;;;;;;;;;;;;;;9.11;nan;102090.00;5420310;26;19996;-91
2024/04/23 07:03:47;;;;;;;;;;;;;;;9.14;nan;102086.91;5400260;26;20384;-91
2024/04/23 07:06:12;;;;;;;;;;;;;;;9.18;nan;102090.84;5417740;26;19932;-91
2024/04/23 07:08:37;;;;;;;;;;;;;;;9.24;nan;102090.00;5395853;26;19933;-92
2024/04/23 07:11:03;;;;;;;;;;;;;;;9.33;nan;102087.94;5408248;26;19936;-92
2024/04/23 07:13:28;;;;;;;;;;;;;;;9.51;nan;102095.31;5405945;26;19978;-92
2024/04/23 07:15:53;;;;;;;;;;;;;;;9.60;nan;102092.22;5400679;26;20380;-91
2024/04/23 07:18:18;;;;;;;;;;;;;;;9.63;nan;102086.44;5411701;26;19935;-91
2024/04/23 07:20:44;;;;;;;;;;;;;;;9.75;nan;102083.16;5397165;26;20462;-91
2024/04/23 07:23:09;;;;;;;;;;;;;;;9.88;nan;102080.44;5404934;26;19998;-91
2024/04/23 07:25:34;;;;;;;;;;;;;;;9.95;nan;102082.06;5398251;26;19928;-91
2024/04/23 07:27:59;;;;;;;;;;;;;;;10.06;nan;102071.72;5408474;26;20002;-92
2024/04/23 07:30:26;;;;;;;;;;;;;;;10.17;nan;102076.41;5414149;26;20691;-92
2024/04/23 07:32:55;;;;;;;;;;;;;;;10.27;nan;102064.25;5387945;26;19941;-91
2024/04/23 07:35:24;;;;;;;;;;;;;;;10.37;nan;102065.63;5414417;26;19962;-92
2024/04/23 07:37:49;;;;;;;;;;;;;;;10.47;nan;102061.44;5418190;26;19929;-92
2024/04/23 07:40:14;;;;;;;;;;;;;;;10.65;nan;102054.53;5415620;26;20343;-92
2024/04/23 07:42:40;;;;;;;;;;;;;;;10.79;nan;102056.09;5407632;26;20710;-92
2024/04/23 07:45:05;;;;;;;;;;;;;;;10.92;nan;102055.97;5409825;26;19929;-92
2024/04/23 07:47:32;;;;;;;;;;;;;;;11.00;nan;102047.66;5415433;26;19981;-92
2024/04/23 07:49:58;;;;;;;;;;;;;;;11.14;nan;102054.56;5412019;26;19960;-92
2024/04/23 07:52:23;;;;;;;;;;;;;;;11.13;nan;102044.88;5412297;26;19933;-92
2024/04/23 07:54:50;;;;;;;;;;;;;;;11.14;nan;102051.06;5406611;26;19929;-91
2024/04/23 07:57:16;;;;;;;;;;;;;;;11.10;nan;102047.97;5405593;26;19929;-91
2024/04/23 07:59:41;;;;;;;;;;;;;;;10.96;nan;102043.78;5399713;26;19937;-92
2024/04/23 08:02:06;;;;;;;;;;;;;;;10.85;nan;102049.84;5413484;26;19929;-91
2024/04/23 08:04:31;;;;;;;;;;;;;;;10.74;nan;102043.31;5404150;26;19929;-92
2024/04/23 08:06:56;;;;;;;;;;;;;;;10.65;nan;102043.81;5404604;26;20442;-90
2024/04/23 08:09:21;;;;;;;;;;;;;;;10.56;nan;102035.19;5400802;26;19969;-91
2024/04/23 08:11:47;;;;;;;;;;;;;;;10.48;nan;102038.16;5416436;26;19933;-92
2024/04/23 08:14:12;;;;;;;;;;;;;;;10.53;nan;102036.47;5409802;26;20481;-92
2024/04/23 08:16:37;;;;;;;;;;;;;;;10.73;nan;102030.13;5412900;26;19937;-91
2024/04/23 08:19:02;;;;;;;;;;;;;;;10.95;nan;102022.53;5404384;26;22060;-92
2024/04/23 08:21:28;;;;;;;;;;;;;;;11.20;nan;102026.03;5416803;26;19935;-92
2024/04/23 08:23:53;;;;;;;;;;;;;;;11.46;nan;102027.63;5396043;26;20003;-91
2024/04/23 08:26:18;;;;;;;;;;;;;;;11.70;nan;102031.31;5411631;26;19937;-91
2024/04/23 08:28:46;;;;;;;;;;;;;;;11.85;nan;102017.50;5416747;26;20157;-93
2024/04/23 08:31:11;;;;;;;;;;;;;;;11.92;nan;102023.63;5407854;26;19942;-91
2024/04/23 08:33:36;;;;;;;;;;;;;;;11.87;nan;102016.25;5421850;26;19932;-91
2024/04/23 08:36:02;;;;;;;;;;;;;;;11.83;nan;102019.59;5410394;26;20629;-92
2024/04/23 08:38:27;;;;;;;;;;;;;;;11.77;nan;102016.75;5408532;26;20377;-91
2024/04/23 08:40:52;;;;;;;;;;;;;;;11.65;nan;102020.38;5392525;26;19937;-91
2024/04/23 08:43:25;;;;;;;;;;;;;;;11.61;nan;102017.34;5405335;26;19929;-91
2024/04/23 08:45:51;;;;;;;;;;;;;;;11.59;nan;102008.69;5410404;26;19936;-93
2024/04/23 08:48:17;;;;;;;;;;;;;;;11.75;nan;102001.91;5410463;26;19948;-93
2024/04/23 08:50:42;;;;;;;;;;;;;;;11.98;nan;102002.03;5386419;26;20343;-91
2024/04/23 08:53:08;;;;;;;;;;;;;;;12.20;nan;102006.91;5417119;26;19929;-91
2024/04/23 08:55:37;;;;;;;;;;;;;;;12.32;nan;101997.03;5421446;26;19929;-92
2024/04/23 08:58:03;;;;;;;;;;;;;;;12.37;nan;102002.53;5406451;26;19931;-91
2024/04/23 09:00:28;;;;;;;;;;;;;;;12.31;nan;101996.22;5417674;26;19936;-92
2024/04/23 09:02:55;;;;;;;;;;;;;;;12.38;nan;101998.81;5402838;26;19998;-92
2024/04/23 09:05:20;;;;;;;;;;;;;;;12.54;nan;101997.31;5409243;26;20372;-91
2024/04/23 09:07:46;;;;;;;;;;;;;;;12.79;nan;101991.78;5416075;26;19936;-92
2024/04/23 09:10:11;;;;;;;;;;;;;;;12.97;nan;101979.03;5408674;26;20004;-92
2024/04/23 09:12:36;;;;;;;;;;;;;;;13.21;nan;101987.13;5417090;26;19929;-91
2024/04/23 09:15:01;;;;;;;;;;;;;;;13.38;nan;101990.72;5416803;26;19986;-91
2024/04/23 09:17:30;;;;;;;;;;;;;;;13.40;nan;101991.31;5421657;26;20279;-91
2024/04/23 09:19:55;;;;;;;;;;;;;;;13.30;nan;101988.41;5407122;26;19937;-91
2024/04/23 09:22:20;;;;;;;;;;;;;;;13.29;nan;101984.91;5419268;26;20287;-91
2024/04/23 09:24:46;;;;;;;;;;;;;;;13.43;nan;101977.38;5400252;26;19929;-91
2024/04/23 09:27:11;;;;;;;;;;;;;;;13.49;nan;101976.44;5392750;26;19930;-91
2024/04/23 09:29:36;;;;;;;;;;;;;;;13.57;nan;101978.75;5408327;26;19940;-90
2024/04/23 09:32:02;;;;;;;;;;;;;;;13.68;nan;101974.41;5389311;26;20578;-92
2024/04/23 09:34:27;;;;;;;;;;;;;;;13.66;nan;101971.13;5392159;26;20592;-92
2024/04/23 09:36:52;;;;;;;;;;;;;;;13.59;nan;101976.63;5408312;26;19997;-90
2024/04/23 09:39:17;;;;;;;;;;;;;;;13.47;nan;101970.47;5391919;26;19929;-91
2024/04/23 09:41:54;;;;;;;;;;;;;;;13.39;nan;101960.06;5412500;26;19929;-92
2024/04/23 09:44:19;;;;;;;;;;;;;;;13.31;nan;101965.81;5400326;26;19938;-91
2024/04/23 09:46:44;;;;;;;;;;;;;;;13.22;nan;101959.16;5408806;26;19929;-92
2024/04/23 09:49:11;;;;;;;;;;;;;;;13.11;nan;101963.47;5409716;26;19965;-91
2024/04/23 09:51:36;;;;;;;;;;;;;;;12.97;nan;101962.91;5414275;26;19936;-91
2024/04/23 09:54:04;;;;;;;;;;;;;;;12.91;nan;101961.13;5403599;26;19969;-91
2024/04/23 09:56:29;;;;;;;;;;;;;;;12.87;nan;101957.25;5408178;26;19933;-91
2024/04/23 09:58:55;;;;;;;;;;;;;;;12.85;nan;101956.69;5412144;26;19981;-91
2024/04/23 10:01:27;;;;;;;;;;;;;;;12.86;nan;101957.50;5406346;26;19980;-92
2024/04/23 10:03:59;;;;;;;;;;;;;;;13.04;nan;101956.56;5421240;26;19929;-92
2024/04/23 10:06:26;;;;;;;;;;;;;;;13.41;nan;101949.06;5407297;26;19929;-92
2024/04/23 10:08:54;;;;;;;;;;;;;;;13.81;nan;101946.34;5412556;26;19936;-93
2024/04/23 10:11:27;;;;;;;;;;;;;;;14.15;nan;101942.69;5414956;26;19937;-93
2024/04/23 10:13:54;;;;;;;;;;;;;;;14.24;nan;101945.00;5403301;26;19929;-92
2024/04/23 10:16:26;;;;;;;;;;;;;;;14.19;nan;101933.06;5371599;26;20341;-92
2024/04/23 10:18:51;;;;;;;;;;;;;;;14.28;nan;101938.88;5404618;26;19965;-91
2024/04/23 10:21:20;;;;;;;;;;;;;;;14.30;nan;101934.03;5413728;26;19929;-92
2024/04/23 10:23:46;;;;;;;;;;;;;;;14.17;nan;101932.47;5418202;26;19940;-92
2024/04/23 10:26:13;;;;;;;;;;;;;;;14.12;nan;101927.00;5408778;26;19929;-93
2024/04/23 10:28:39;;;;;;;;;;;;;;;14.13;nan;101923.25;5409263;26;19929;-91
2024/04/23 10:31:04;;;;;;;;;;;;;;;14.12;nan;101920.78;5389828;26;19933;-90
2024/04/23 10:33:31;;;;;;;;;;;;;;;14.07;nan;101915.31;5410893;26;19929;-91
2024/04/23 10:35:59;;;;;;;;;;;;;;;14.12;nan;101913.53;5381078;26;20609;-91
2024/04/23 10:38:25;;;;;;;;;;;;;;;14.15;nan;101910.34;5411772;26;19933;-90
2024/04/23 10:40:51;;;;;;;;;;;;;;;14.12;nan;101915.41;5399876;26;19936;-91
2024/04/23 10:43:16;;;;;;;;;;;;;;;14.00;nan;101917.34;5391963;26;19998;-89
2024/04/23 10:45:42;;;;;;;;;;;;;;;14.00;nan;101917.34;5403621;26;19929;-90
2024/04/23 10:48:08;;;;;;;;;;;;;;;14.00;nan;101906.56;5402254;26;19936;-92
2024/04/23 10:50:33;;;;;;;;;;;;;;;14.03;nan;101908.78;5414414;26;19929;-91
2024/04/23 10:53:01;;;;;;;;;;;;;;;14.06;nan;101902.91;5398071;26;19929;-92
2024/04/23 10:55:27;;;;;;;;;;;;;;;14.10;nan;101894.09;5401628;26;19929;-92
2024/04/23 10:57:53;;;;;;;;;;;;;;;14.18;nan;101898.25;5410678;26;19929;-91
2024/04/23 11:00:24;;;;;;;;;;;;;;;14.29;nan;101907.34;5393174;26;19936;-91
2024/04/23 11:02:52;;;;;;;;;;;;;;;14.36;nan;101899.88;5397905;26;19936;-93
2024/04/23 11:05:17;;;;;;;;;;;;;;;14.40;nan;101891.09;5406826;26;19929;-91
2024/04/23 11:07:52;;;;;;;;;;;;;;;14.46;nan;101886.63;5403142;26;20178;-92
2024/04/23 11:10:18;;;;;;;;;;;;;;;14.55;nan;101887.03;5406864;26;20710;-93
2024/04/23 11:12:44;;;;;;;;;;;;;;;14.66;nan;101878.81;5402713;26;19928;-91
2024/04/23 11:15:14;;;;;;;;;;;;;;;14.74;nan;101883.81;5409490;26;20237;-92
2024/04/23 11:17:40;;;;;;;;;;;;;;;14.71;nan;101880.78;5402363;26;20735;-91
2024/04/23 11:20:06;;;;;;;;;;;;;;;14.64;nan;101880.97;5391979;26;19945;-91
2024/04/23 11:22:34;;;;;;;;;;;;;;;14.63;nan;101873.13;5403116;26;19929;-92
2024/04/23 11:25:03;;;;;;;;;;;;;;;14.65;nan;101866.41;5401706;26;19992;-92
2024/04/23 11:27:29;;;;;;;;;;;;;;;14.91;nan;101864.91;5414165;26;19933;-92
2024/04/23 11:29:54;;;;;;;;;;;;;;;15.19;nan;101861.19;5366016;26;19929;-92
2024/04/23 11:32:19;;;;;;;;;;;;;;;15.35;nan;101860.28;5401733;26;19999;-91
2024/04/23 11:34:48;;;;;;;;;;;;;;;15.42;nan;101857.38;5408178;26;19930;-92
2024/04/23 11:37:23;;;;;;;;;;;;;;;15.40;nan;101851.44;5399785;26;19929;-91
2024/04/23 11:39:58;;;;;;;;;;;;;;;15.15;nan;101853.84;5399333;26;19949;-90
2024/04/23 11:42:32;;;;;;;;;;;;;;;15.07;nan;101849.69;5382546;26;19937;-91
2024/04/23 11:45:04;;;;;;;;;;;;;;;15.13;nan;101843.31;5400378;26;20265;-92
2024/04/23 11:47:30;;;;;;;;;;;;;;;15.33;nan;101851.63;5413088;26;19956;-90
2024/04/23 11:49:56;;;;;;;;;;;;;;;15.32;nan;101851.88;5411369;26;19952;-91
2024/04/23 11:52:22;;;;;;;;;;;;;;;15.34;nan;101852.44;5409240;26;19928;-90
2024/04/23 11:54:47;;;;;;;;;;;;;;;15.41;nan;101844.97;5413911;26;19940;-92
2024/04/23 11:57:13;;;;;;;;;;;;;;;15.52;nan;101835.09;5415064;26;20365;-91
2024/04/23 11:59:45;;;;;;;;;;;;;;;15.76;nan;101833.72;5412522;26;20479;-91
2024/04/23 12:02:10;;;;;;;;;;;;;;;16.05;nan;101825.34;5401519;26;19930;-91
2024/04/23 12:04:36;;;;;;;;;;;;;;;16.27;nan;101828.75;5388851;26;19944;-92
2024/04/23 12:07:02;;;;;;;;;;;;;;;16.41;nan;101824.53;5409890;26;19937;-92
2024/04/23 12:09:27;;;;;;;;;;;;;;;16.51;nan;101821.88;5363944;26;19929;-91
2024/04/23 12:11:53;;;;;;;;;;;;;;;16.63;nan;101829.78;5398399;26;19998;-92
2024/04/23 12:14:19;;;;;;;;;;;;;;;16.50;nan;101817.53;5393200;26;19930;-93
2024/04/23 12:16:45;;;;;;;;;;;;;;;16.29;nan;101816.59;5406922;26;20403;-91
2024/04/23 12:19:10;;;;;;;;;;;;;;;16.04;nan;101805.59;5401954;26;19970;-92
2024/04/23 12:21:36;;;;;;;;;;;;;;;15.86;nan;101812.22;5416929;26;19929;-91
2024/04/23 12:24:01;;;;;;;;;;;;;;;15.68;nan;101818.00;5408186;26;19933;-91
2024/04/23 12:26:26;;;;;;;;;;;;;;;15.48;nan;101805.09;5409614;26;20259;-92
2024/04/23 12:28:52;;;;;;;;;;;;;;;15.39;nan;101807.41;5410124;26;19929;-91
2024/04/23 12:31:17;;;;;;;;;;;;;;;15.41;nan;101805.25;5403220;26;19957;-92
2024/04/23 12:33:42;;;;;;;;;;;;;;;15.56;nan;101814.59;5401679;26;19997;-92
2024/04/23 12:36:10;;;;;;;;;;;;;;;15.66;nan;101806.63;5394863;26;19937;-91
2024/04/23 12:38:54;;;;;;;;;;;;;;;15.70;nan;101802.34;5400923;26;20823;-91
2024/04/23 12:41:24;;;;;;;;;;;;;;;15.76;nan;101792.38;5404765;26;19940;-91
2024/04/23 12:43:49;;;;;;;;;;;;;;;15.81;nan;101790.56;5399848;26;19978;-92
2024/04/23 12:46:15;;;;;;;;;;;;;;;15.83;nan;101779.50;5406803;26;19933;-92
2024/04/23 12:48:41;;;;;;;;;;;;;;;15.84;nan;101781.94;5403857;26;20598;-91
2024/04/23 12:51:06;;;;;;;;;;;;;;;15.89;nan;101781.97;5397282;26;19934;-91
2024/04/23 12:53:32;;;;;;;;;;;;;;;15.90;nan;101780.91;5408833;26;20180;-91
2024/04/23 12:55:57;;;;;;;;;;;;;;;15.82;nan;101777.88;5403952;26;19932;-92
2024/04/23 12:58:25;;;;;;;;;;;;;;;15.73;nan;101774.81;5422088;26;19929;-92
2024/04/23 13:00:50;;;;;;;;;;;;;;;15.76;nan;101768.06;5404803;26;20353;-88
2024/04/23 13:03:15;;;;;;;;;;;;;;;15.86;nan;101768.97;5383109;26;19944;-86
2024/04/23 13:05:45;;;;;;;;;;;;;;;15.89;nan;101768.47;5390930;26;19929;-90
2024/04/23 13:08:11;;;;;;;;;;;;;;;15.85;nan;101763.84;5397621;26;19930;-86
2024/04/23 13:10:36;;;;;;;;;;;;;;;15.81;nan;101760.84;5390664;26;19936;-86